Aviation Digital Data Service (ADDS)

Output produced by METARs form (1034 UTC 17 June 2019)
found at http://www.aviationweather.gov/metar/data/
 
Forecast for: VAAH (AHMADABAD , IN)
Text: TAF VAAH 170800Z 1709/1718 20010KT 4000 FU HZ SCT020 FEW035CB BKN080
Forecast period: 0900 to 1800 UTC 17 June 2019
Forecast type: FROM: standard forecast or significant change
Winds: from the SSW (200 degrees) at 12 MPH (10 knots; 5.1 m/s)
Visibility: 2.49 miles (4.01 km)
Ceiling: 8000 feet AGL
Clouds: scattered clouds at 2000 feet AGL
few clouds at 3500 feet AGL
broken clouds at 8000 feet AGL
Weather: FU HZ  (smoke, haze)
Text: TEMPO 1713/1717 20008G18KT 2000 TSRA
Forecast period: 1300 to 1700 UTC 17 June 2019
Forecast type: TEMPORARY: The following changes expected for less than half the time period
Winds: from the SSW (200 degrees) at 9 MPH (8 knots; 4.1 m/s)
gusting to 21 MPH (18 knots; 9.3 m/s)
Visibility: 1.24 miles (2.00 km)
Ceiling: unknown
Clouds: missing
Weather: TSRA  (rain associated with thunderstorm(s))